sensor_id;sensor_type;location;lat;lon;timestamp;P1;durP1;ratioP1;P2;durP2;ratioP2
47513;SDS011;33951;51.988;5.910;2023-07-30T04:03:09;20.33;;;10.13;;
47513;SDS011;33951;51.988;5.910;2023-07-30T04:05:35;28.25;;;10.70;;
47513;SDS011;33951;51.988;5.910;2023-07-30T04:08:00;22.45;;;10.38;;
47513;SDS011;33951;51.988;5.910;2023-07-30T04:10:26;20.73;;;10.02;;
47513;SDS011;33951;51.988;5.910;2023-07-30T04:12:52;24.67;;;9.50;;
47513;SDS011;33951;51.988;5.910;2023-07-30T05:20:24;35.17;;;13.63;;
47513;SDS011;33951;51.988;5.910;2023-07-30T05:22:52;35.78;;;13.90;;
47513;SDS011;33951;51.988;5.910;2023-07-30T05:25:21;29.83;;;14.00;;
47513;SDS011;33951;51.988;5.910;2023-07-30T05:27:53;30.38;;;13.35;;
47513;SDS011;33951;51.988;5.910;2023-07-30T05:30:19;34.83;;;13.98;;
47513;SDS011;33951;51.988;5.910;2023-07-30T06:17:32;32.95;;;16.02;;
47513;SDS011;33951;51.988;5.910;2023-07-30T06:20:04;42.08;;;19.30;;
47513;SDS011;33951;51.988;5.910;2023-07-30T06:22:41;39.45;;;17.75;;
47513;SDS011;33951;51.988;5.910;2023-07-30T06:25:12;40.60;;;18.83;;
47513;SDS011;33951;51.988;5.910;2023-07-30T06:27:41;41.60;;;19.10;;
47513;SDS011;33951;51.988;5.910;2023-07-30T06:30:10;52.33;;;18.40;;
47513;SDS011;33951;51.988;5.910;2023-07-30T06:32:45;34.00;;;17.38;;
47513;SDS011;33951;51.988;5.910;2023-07-30T06:35:16;38.65;;;16.25;;
47513;SDS011;33951;51.988;5.910;2023-07-30T06:37:50;32.55;;;16.35;;
47513;SDS011;33951;51.988;5.910;2023-07-30T06:40:21;37.42;;;16.95;;
47513;SDS011;33951;51.988;5.910;2023-07-30T06:42:54;37.22;;;18.42;;
47513;SDS011;33951;51.988;5.910;2023-07-30T06:45:20;42.92;;;19.20;;
47513;SDS011;33951;51.988;5.910;2023-07-30T06:47:48;37.08;;;16.45;;
47513;SDS011;33951;51.988;5.910;2023-07-30T06:50:14;36.08;;;15.90;;
47513;SDS011;33951;51.988;5.910;2023-07-30T06:52:48;32.65;;;16.38;;
47513;SDS011;33951;51.988;5.910;2023-07-30T06:58:36;39.28;;;16.20;;
47513;SDS011;33951;51.988;5.910;2023-07-30T07:01:04;29.00;;;14.25;;
47513;SDS011;33951;51.988;5.910;2023-07-30T07:03:30;37.05;;;16.02;;
47513;SDS011;33951;51.988;5.910;2023-07-30T07:05:59;36.65;;;16.20;;
47513;SDS011;33951;51.988;5.910;2023-07-30T07:08:25;36.70;;;16.48;;
47513;SDS011;33951;51.988;5.910;2023-07-30T07:20:13;40.85;;;16.25;;
47513;SDS011;33951;51.988;5.910;2023-07-30T08:14:21;25.40;;;9.35;;
47513;SDS011;33951;51.988;5.910;2023-07-30T09:19:14;21.35;;;7.55;;
47513;SDS011;33951;51.988;5.910;2023-07-30T09:21:46;17.60;;;5.80;;
47513;SDS011;33951;51.988;5.910;2023-07-30T09:24:14;28.95;;;6.93;;
47513;SDS011;33951;51.988;5.910;2023-07-30T09:26:47;28.15;;;6.95;;
47513;SDS011;33951;51.988;5.910;2023-07-30T09:29:13;17.80;;;5.47;;
47513;SDS011;33951;51.988;5.910;2023-07-30T10:40:08;15.70;;;5.10;;
47513;SDS011;33951;51.988;5.910;2023-07-30T10:45:54;12.13;;;3.88;;
47513;SDS011;33951;51.988;5.910;2023-07-30T11:04:17;14.57;;;3.30;;
47513;SDS011;33951;51.988;5.910;2023-07-30T11:10:21;14.32;;;2.83;;
47513;SDS011;33951;51.988;5.910;2023-07-30T11:13:48;13.15;;;3.70;;
47513;SDS011;33951;51.988;5.910;2023-07-30T14:33:18;5.63;;;2.20;;
47513;SDS011;33951;51.988;5.910;2023-07-30T14:35:52;6.72;;;1.95;;
47513;SDS011;33951;51.988;5.910;2023-07-30T14:38:31;5.80;;;2.58;;
47513;SDS011;33951;51.988;5.910;2023-07-30T14:40:59;6.75;;;2.47;;
47513;SDS011;33951;51.988;5.910;2023-07-30T14:47:08;4.97;;;2.10;;
47513;SDS011;33951;51.988;5.910;2023-07-30T14:50:35;7.22;;;2.47;;
47513;SDS011;33951;51.988;5.910;2023-07-30T14:54:05;6.53;;;1.90;;
47513;SDS011;33951;51.988;5.910;2023-07-30T15:08:35;13.98;;;3.42;;
47513;SDS011;33951;51.988;5.910;2023-07-30T15:11:15;6.20;;;2.60;;
47513;SDS011;33951;51.988;5.910;2023-07-30T15:13:47;17.40;;;7.07;;
47513;SDS011;33951;51.988;5.910;2023-07-30T15:16:22;11.63;;;2.65;;
47513;SDS011;33951;51.988;5.910;2023-07-30T15:18:51;5.15;;;1.98;;
47513;SDS011;33951;51.988;5.910;2023-07-30T15:21:43;14.57;;;3.80;;
47513;SDS011;33951;51.988;5.910;2023-07-30T15:24:14;9.10;;;3.10;;
47513;SDS011;33951;51.988;5.910;2023-07-30T15:26:40;11.10;;;4.18;;
47513;SDS011;33951;51.988;5.910;2023-07-30T15:29:11;13.27;;;3.35;;
47513;SDS011;33951;51.988;5.910;2023-07-30T15:31:45;9.75;;;3.15;;
47513;SDS011;33951;51.988;5.910;2023-07-30T15:34:17;8.10;;;2.78;;
47513;SDS011;33951;51.988;5.910;2023-07-30T15:36:45;8.07;;;2.70;;
47513;SDS011;33951;51.988;5.910;2023-07-30T15:39:11;13.73;;;2.97;;
47513;SDS011;33951;51.988;5.910;2023-07-30T15:41:37;9.48;;;3.35;;
47513;SDS011;33951;51.988;5.910;2023-07-30T15:44:03;17.02;;;3.85;;
47513;SDS011;33951;51.988;5.910;2023-07-30T15:46:31;8.48;;;2.50;;
47513;SDS011;33951;51.988;5.910;2023-07-30T15:49:03;9.60;;;3.45;;
47513;SDS011;33951;51.988;5.910;2023-07-30T15:51:28;21.33;;;10.88;;
47513;SDS011;33951;51.988;5.910;2023-07-30T15:53:54;9.50;;;3.72;;
47513;SDS011;33951;51.988;5.910;2023-07-30T15:56:23;11.32;;;3.15;;
47513;SDS011;33951;51.988;5.910;2023-07-30T15:58:51;9.60;;;3.40;;
47513;SDS011;33951;51.988;5.910;2023-07-30T16:01:24;8.85;;;4.00;;
47513;SDS011;33951;51.988;5.910;2023-07-30T16:03:50;9.77;;;2.53;;
47513;SDS011;33951;51.988;5.910;2023-07-30T16:06:21;6.63;;;2.60;;
47513;SDS011;33951;51.988;5.910;2023-07-30T16:08:50;13.05;;;3.40;;
47513;SDS011;33951;51.988;5.910;2023-07-30T16:11:16;9.30;;;3.65;;
47513;SDS011;33951;51.988;5.910;2023-07-30T16:13:42;8.77;;;3.20;;
47513;SDS011;33951;51.988;5.910;2023-07-30T16:16:08;9.25;;;3.75;;
47513;SDS011;33951;51.988;5.910;2023-07-30T16:18:51;7.72;;;2.17;;
47513;SDS011;33951;51.988;5.910;2023-07-30T16:21:53;14.23;;;3.28;;
47513;SDS011;33951;51.988;5.910;2023-07-30T16:27:52;8.00;;;2.45;;
47513;SDS011;33951;51.988;5.910;2023-07-30T16:33:09;8.27;;;2.50;;
47513;SDS011;33951;51.988;5.910;2023-07-30T16:35:37;9.63;;;2.53;;
47513;SDS011;33951;51.988;5.910;2023-07-30T16:38:24;10.98;;;2.58;;
47513;SDS011;33951;51.988;5.910;2023-07-30T16:41:01;10.43;;;3.13;;
47513;SDS011;33951;51.988;5.910;2023-07-30T16:43:27;8.82;;;3.03;;
47513;SDS011;33951;51.988;5.910;2023-07-30T16:46:28;7.90;;;2.50;;
47513;SDS011;33951;51.988;5.910;2023-07-30T16:49:06;14.50;;;3.00;;
47513;SDS011;33951;51.988;5.910;2023-07-30T16:51:38;9.35;;;3.15;;
47513;SDS011;33951;51.988;5.910;2023-07-30T16:54:03;16.48;;;4.15;;
47513;SDS011;33951;51.988;5.910;2023-07-30T16:56:29;10.85;;;2.70;;
47513;SDS011;33951;51.988;5.910;2023-07-30T16:58:57;11.02;;;2.47;;
47513;SDS011;33951;51.988;5.910;2023-07-30T17:01:23;8.52;;;3.15;;
47513;SDS011;33951;51.988;5.910;2023-07-30T17:03:49;9.15;;;3.72;;
47513;SDS011;33951;51.988;5.910;2023-07-30T17:06:17;7.60;;;2.70;;
47513;SDS011;33951;51.988;5.910;2023-07-30T17:08:48;10.45;;;3.60;;
47513;SDS011;33951;51.988;5.910;2023-07-30T17:11:16;11.07;;;4.97;;
47513;SDS011;33951;51.988;5.910;2023-07-30T17:13:44;11.30;;;3.75;;
47513;SDS011;33951;51.988;5.910;2023-07-30T17:16:21;11.47;;;3.87;;
47513;SDS011;33951;51.988;5.910;2023-07-30T17:18:47;8.48;;;3.10;;
47513;SDS011;33951;51.988;5.910;2023-07-30T17:21:15;13.07;;;3.60;;
47513;SDS011;33951;51.988;5.910;2023-07-30T17:23:41;11.93;;;3.58;;
47513;SDS011;33951;51.988;5.910;2023-07-30T17:26:09;12.77;;;3.22;;
47513;SDS011;33951;51.988;5.910;2023-07-30T17:28:35;9.38;;;3.33;;
47513;SDS011;33951;51.988;5.910;2023-07-30T17:31:00;11.00;;;4.10;;
47513;SDS011;33951;51.988;5.910;2023-07-30T17:33:26;12.00;;;3.42;;
47513;SDS011;33951;51.988;5.910;2023-07-30T17:35:52;12.43;;;3.88;;
47513;SDS011;33951;51.988;5.910;2023-07-30T17:38:20;11.27;;;3.17;;
47513;SDS011;33951;51.988;5.910;2023-07-30T17:40:57;8.57;;;3.30;;
47513;SDS011;33951;51.988;5.910;2023-07-30T17:43:23;9.90;;;3.35;;
47513;SDS011;33951;51.988;5.910;2023-07-30T17:45:49;14.13;;;4.70;;
47513;SDS011;33951;51.988;5.910;2023-07-30T17:48:15;10.30;;;3.53;;
47513;SDS011;33951;51.988;5.910;2023-07-30T17:50:41;14.95;;;3.97;;
47513;SDS011;33951;51.988;5.910;2023-07-30T17:53:07;15.30;;;4.35;;
47513;SDS011;33951;51.988;5.910;2023-07-30T17:55:33;10.20;;;3.88;;
47513;SDS011;33951;51.988;5.910;2023-07-30T17:57:58;10.85;;;4.03;;
47513;SDS011;33951;51.988;5.910;2023-07-30T18:00:24;11.57;;;3.78;;
47513;SDS011;33951;51.988;5.910;2023-07-30T18:02:50;13.07;;;4.63;;
47513;SDS011;33951;51.988;5.910;2023-07-30T18:05:16;12.43;;;4.28;;
47513;SDS011;33951;51.988;5.910;2023-07-30T18:07:42;11.07;;;3.45;;
47513;SDS011;33951;51.988;5.910;2023-07-30T18:10:08;8.02;;;3.28;;
47513;SDS011;33951;51.988;5.910;2023-07-30T18:12:36;7.57;;;2.65;;
47513;SDS011;33951;51.988;5.910;2023-07-30T18:15:04;9.27;;;3.45;;
47513;SDS011;33951;51.988;5.910;2023-07-30T18:17:30;7.63;;;3.03;;
47513;SDS011;33951;51.988;5.910;2023-07-30T18:20:04;12.40;;;3.75;;
47513;SDS011;33951;51.988;5.910;2023-07-30T18:22:39;7.10;;;3.05;;
47513;SDS011;33951;51.988;5.910;2023-07-30T18:25:08;6.65;;;2.63;;
47513;SDS011;33951;51.988;5.910;2023-07-30T18:27:36;6.30;;;3.08;;
47513;SDS011;33951;51.988;5.910;2023-07-30T18:30:02;7.25;;;3.05;;
47513;SDS011;33951;51.988;5.910;2023-07-30T18:32:29;6.80;;;2.75;;
47513;SDS011;33951;51.988;5.910;2023-07-30T18:35:02;8.57;;;3.28;;
47513;SDS011;33951;51.988;5.910;2023-07-30T18:37:28;3.00;;;2.30;;
47513;SDS011;33951;51.988;5.910;2023-07-30T18:39:53;9.77;;;3.72;;
47513;SDS011;33951;51.988;5.910;2023-07-30T18:42:20;6.25;;;3.15;;
47513;SDS011;33951;51.988;5.910;2023-07-30T18:44:46;7.53;;;3.33;;
47513;SDS011;33951;51.988;5.910;2023-07-30T18:47:17;6.95;;;2.92;;
47513;SDS011;33951;51.988;5.910;2023-07-30T18:49:45;5.70;;;3.15;;
47513;SDS011;33951;51.988;5.910;2023-07-30T18:52:14;10.27;;;3.55;;
47513;SDS011;33951;51.988;5.910;2023-07-30T18:54:43;10.13;;;3.28;;
47513;SDS011;33951;51.988;5.910;2023-07-30T18:57:09;9.73;;;3.13;;
47513;SDS011;33951;51.988;5.910;2023-07-30T18:59:43;7.47;;;3.92;;
47513;SDS011;33951;51.988;5.910;2023-07-30T19:02:11;7.47;;;3.35;;
47513;SDS011;33951;51.988;5.910;2023-07-30T19:04:39;7.25;;;2.78;;
47513;SDS011;33951;51.988;5.910;2023-07-30T19:07:05;15.23;;;3.22;;
47513;SDS011;33951;51.988;5.910;2023-07-30T19:09:34;9.70;;;3.70;;
47513;SDS011;33951;51.988;5.910;2023-07-30T19:11:59;13.02;;;4.10;;
47513;SDS011;33951;51.988;5.910;2023-07-30T19:14:25;9.88;;;3.63;;
47513;SDS011;33951;51.988;5.910;2023-07-30T19:16:58;11.70;;;4.70;;
47513;SDS011;33951;51.988;5.910;2023-07-30T19:19:29;10.52;;;4.22;;
47513;SDS011;33951;51.988;5.910;2023-07-30T19:21:55;15.52;;;5.07;;
47513;SDS011;33951;51.988;5.910;2023-07-30T19:24:28;12.02;;;5.28;;
47513;SDS011;33951;51.988;5.910;2023-07-30T19:27:00;12.60;;;4.72;;
47513;SDS011;33951;51.988;5.910;2023-07-30T19:29:31;10.63;;;5.13;;
47513;SDS011;33951;51.988;5.910;2023-07-30T19:31:59;13.35;;;5.25;;
47513;SDS011;33951;51.988;5.910;2023-07-30T19:34:25;15.13;;;5.57;;
47513;SDS011;33951;51.988;5.910;2023-07-30T19:37:01;11.98;;;5.00;;
47513;SDS011;33951;51.988;5.910;2023-07-30T19:39:27;11.88;;;5.30;;
47513;SDS011;33951;51.988;5.910;2023-07-30T19:41:56;13.70;;;5.15;;
47513;SDS011;33951;51.988;5.910;2023-07-30T19:44:25;12.55;;;4.90;;
47513;SDS011;33951;51.988;5.910;2023-07-30T19:46:50;12.32;;;4.82;;
47513;SDS011;33951;51.988;5.910;2023-07-30T19:49:32;17.88;;;6.05;;
47513;SDS011;33951;51.988;5.910;2023-07-30T19:52:06;16.42;;;5.82;;
47513;SDS011;33951;51.988;5.910;2023-07-30T19:54:32;14.52;;;5.40;;
47513;SDS011;33951;51.988;5.910;2023-07-30T19:57:01;16.10;;;6.60;;
47513;SDS011;33951;51.988;5.910;2023-07-30T19:59:29;16.85;;;6.47;;
47513;SDS011;33951;51.988;5.910;2023-07-30T20:02:44;12.00;;;6.70;;
47513;SDS011;33951;51.988;5.910;2023-07-30T20:05:11;13.30;;;5.72;;
47513;SDS011;33951;51.988;5.910;2023-07-30T20:07:45;17.88;;;7.00;;
47513;SDS011;33951;51.988;5.910;2023-07-30T20:10:20;10.57;;;5.40;;
47513;SDS011;33951;51.988;5.910;2023-07-30T20:12:51;14.57;;;6.07;;
47513;SDS011;33951;51.988;5.910;2023-07-30T20:15:33;12.52;;;5.38;;
47513;SDS011;33951;51.988;5.910;2023-07-30T20:21:42;14.77;;;5.57;;
47513;SDS011;33951;51.988;5.910;2023-07-30T20:28:06;11.30;;;5.30;;
47513;SDS011;33951;51.988;5.910;2023-07-30T21:13:34;6.68;;;3.85;;
47513;SDS011;33951;51.988;5.910;2023-07-30T21:19:38;5.95;;;3.40;;
47513;SDS011;33951;51.988;5.910;2023-07-30T22:20:15;6.75;;;3.35;;
47513;SDS011;33951;51.988;5.910;2023-07-30T22:22:47;5.63;;;2.88;;
47513;SDS011;33951;51.988;5.910;2023-07-30T22:25:20;4.88;;;3.35;;
47513;SDS011;33951;51.988;5.910;2023-07-30T22:27:57;6.38;;;3.40;;
47513;SDS011;33951;51.988;5.910;2023-07-30T22:30:59;5.75;;;2.70;;
47513;SDS011;33951;51.988;5.910;2023-07-30T22:33:38;4.05;;;3.28;;
47513;SDS011;33951;51.988;5.910;2023-07-30T22:36:13;4.63;;;3.38;;
47513;SDS011;33951;51.988;5.910;2023-07-30T22:38:50;4.35;;;3.40;;
47513;SDS011;33951;51.988;5.910;2023-07-30T22:41:16;5.68;;;3.17;;
47513;SDS011;33951;51.988;5.910;2023-07-30T22:43:44;4.07;;;2.58;;
47513;SDS011;33951;51.988;5.910;2023-07-30T22:46:10;4.78;;;3.72;;
47513;SDS011;33951;51.988;5.910;2023-07-30T22:48:38;7.43;;;3.92;;
47513;SDS011;33951;51.988;5.910;2023-07-30T22:51:04;8.70;;;4.35;;
47513;SDS011;33951;51.988;5.910;2023-07-30T22:53:35;5.07;;;3.63;;
47513;SDS011;33951;51.988;5.910;2023-07-30T22:56:01;8.52;;;4.00;;
47513;SDS011;33951;51.988;5.910;2023-07-30T22:58:27;5.97;;;3.47;;
47513;SDS011;33951;51.988;5.910;2023-07-30T23:00:53;5.40;;;3.70;;
47513;SDS011;33951;51.988;5.910;2023-07-30T23:03:18;5.55;;;3.70;;
47513;SDS011;33951;51.988;5.910;2023-07-30T23:05:44;4.80;;;3.20;;
47513;SDS011;33951;51.988;5.910;2023-07-30T23:08:13;8.05;;;3.97;;
47513;SDS011;33951;51.988;5.910;2023-07-30T23:10:41;7.13;;;3.15;;
47513;SDS011;33951;51.988;5.910;2023-07-30T23:13:10;4.00;;;3.00;;
47513;SDS011;33951;51.988;5.910;2023-07-30T23:15:35;4.93;;;3.17;;
47513;SDS011;33951;51.988;5.910;2023-07-30T23:18:01;7.22;;;3.70;;
47513;SDS011;33951;51.988;5.910;2023-07-30T23:20:27;4.80;;;3.30;;
47513;SDS011;33951;51.988;5.910;2023-07-30T23:22:52;5.43;;;3.55;;
47513;SDS011;33951;51.988;5.910;2023-07-30T23:25:20;6.88;;;4.07;;
47513;SDS011;33951;51.988;5.910;2023-07-30T23:27:46;9.77;;;3.78;;
47513;SDS011;33951;51.988;5.910;2023-07-30T23:30:14;6.53;;;4.55;;
47513;SDS011;33951;51.988;5.910;2023-07-30T23:32:45;6.55;;;4.63;;
47513;SDS011;33951;51.988;5.910;2023-07-30T23:35:14;5.22;;;3.95;;
47513;SDS011;33951;51.988;5.910;2023-07-30T23:37:39;5.50;;;4.20;;
47513;SDS011;33951;51.988;5.910;2023-07-30T23:40:08;7.05;;;4.60;;
47513;SDS011;33951;51.988;5.910;2023-07-30T23:42:35;5.25;;;3.83;;
47513;SDS011;33951;51.988;5.910;2023-07-30T23:45:03;4.88;;;4.32;;
47513;SDS011;33951;51.988;5.910;2023-07-30T23:47:34;4.90;;;3.42;;
47513;SDS011;33951;51.988;5.910;2023-07-30T23:49:59;3.63;;;3.25;;
47513;SDS011;33951;51.988;5.910;2023-07-30T23:52:28;4.55;;;3.25;;
47513;SDS011;33951;51.988;5.910;2023-07-30T23:54:54;5.38;;;3.88;;
47513;SDS011;33951;51.988;5.910;2023-07-30T23:57:22;4.00;;;3.22;;
47513;SDS011;33951;51.988;5.910;2023-07-30T23:59:56;6.40;;;3.90;;
